Glendive, MT

6:32 PM MDT on October 23, 2017 (GMT -0600)
Dawson Community

Weather History for KGDV - August, 2012

Change the Weather History Date:

Friday, August 3, 2012

  Actual Average Record
Temperature  
Mean Temperature 60 °F -  
Max Temperature 66 °F 83 °F 98 °F (2001)
Min Temperature 55 °F 57 °F 46 °F (2017)
Degree Days  
Heating Degree Days 4    
Growing Degree Days 10 (Base 50)    
Moisture  
Dew Point 51 °F    
Average Humidity 73    
Maximum Humidity 94    
Minimum Humidity 52    
Precipitation  
Precipitation 0.48 in - - ()
Sea Level Pressure  
Sea Level Pressure 29.93 in    
Wind  
Wind Speed 10 mph (NW)    
Max Wind Speed 23 mph    
Max Gust Speed 30 mph    
Visibility 10 miles    
Events      
Averages and records for this station are not official NWS values.
T = Trace of Precipitation, MM = Missing Value Source: NWS Daily Summary

Daily Weather History Graph

Daily Weather History Graph

Search for Another Location

Airport or City:

Trip Planner

Search our weather history database for the weather conditions in past years. The results will help you decide how hot, cold, wet, or windy it might be!

Date:

Astronomy

Aug. 03, 2012 Rise Set
Actual Time 5:41 AM MDT 8:28 PM MDT
Civil Twilight 5:06 AM MDT 9:03 PM MDT
Nautical Twilight 4:21 AM MDT 9:48 PM MDT
Astronomical Twilight 3:28 AM MDT 10:40 PM MDT
Moon 8:54 PM MDT (8/3) 7:38 AM MDT (8/3)
Length of Visible Light 15h 57m
Length of Day
14h 47m
Full, 97% of the Moon is Illuminated
Aug 3
Full
Aug 9
Last Quarter
Aug 17
New
Aug 24
First Quarter
Aug 31
Full

Hourly Weather History & Observations

Time (MDT) Temp. Dew Point Humidity Pressure Visibility Wind Dir Wind Speed Gust Speed Precip Events Conditions
12:15 AM 62.6 °F 53.6 °F 72% 29.84 in 10.0 mi NNW 5.8 mph - N/A   Clear
12:35 AM 62.6 °F 53.6 °F 72% 29.85 in 10.0 mi North 4.6 mph - N/A   Clear
12:55 AM 60.8 °F 51.8 °F 72% 29.84 in 10.0 mi NNW 6.9 mph - N/A   Clear
1:15 AM 60.8 °F 53.6 °F 77% 29.84 in 10.0 mi NNW 8.1 mph - N/A   Clear
1:35 AM 60.8 °F 53.6 °F 77% 29.85 in 10.0 mi NW 8.1 mph - N/A   Clear
1:55 AM 62.6 °F 53.6 °F 72% 29.85 in 10.0 mi North 13.8 mph - N/A   Clear
2:15 AM 64.4 °F 53.6 °F 68% 29.85 in 10.0 mi North 12.7 mph - N/A   Clear
2:35 AM 64.4 °F 53.6 °F 68% 29.85 in 10.0 mi North 11.5 mph - N/A   Clear
2:55 AM 64.4 °F 53.6 °F 68% 29.85 in 10.0 mi North 12.7 mph - N/A   Clear
3:15 AM 64.4 °F 53.6 °F 68% 29.85 in 10.0 mi North 11.5 mph - N/A   Clear
3:35 AM 62.6 °F 53.6 °F 72% 29.85 in 10.0 mi NW 11.5 mph - N/A   Clear
3:55 AM 62.6 °F 53.6 °F 72% 29.86 in 10.0 mi NNW 12.7 mph - N/A   Scattered Clouds
4:15 AM 62.6 °F 55.4 °F 77% 29.86 in 10.0 mi NNW 6.9 mph - N/A   Overcast
4:35 AM 60.8 °F 55.4 °F 82% 29.84 in 10.0 mi North 13.8 mph - N/A   Overcast
4:55 AM 60.8 °F 55.4 °F 82% 29.84 in 10.0 mi NE 4.6 mph - N/A   Mostly Cloudy
5:15 AM 60.8 °F 55.4 °F 82% 29.84 in 10.0 mi North 5.8 mph - N/A   Scattered Clouds
5:35 AM 60.8 °F 55.4 °F 82% 29.89 in 10.0 mi WNW 11.5 mph - N/A   Mostly Cloudy
5:55 AM 60.8 °F 55.4 °F 82% 29.92 in 10.0 mi WNW 11.5 mph 21.9 mph 0.01 in   Overcast
6:15 AM 60.8 °F 55.4 °F 82% 29.87 in 10.0 mi NNW 16.1 mph - 0.07 in   Overcast
6:35 AM 59.0 °F 55.4 °F 88% 29.87 in 10.0 mi North 13.8 mph - 0.07 in   Mostly Cloudy
6:55 AM 59.0 °F 55.4 °F 88% 29.86 in 10.0 mi North 18.4 mph - 0.07 in   Overcast
7:15 AM 57.2 °F 53.6 °F 88% 29.87 in 10.0 mi North 16.1 mph 19.6 mph N/A   Overcast
7:35 AM 57.2 °F 53.6 °F 88% 29.91 in 10.0 mi North 9.2 mph 20.7 mph N/A   Overcast
7:55 AM 55.4 °F 53.6 °F 94% 29.96 in 10.0 mi NW 6.9 mph - 0.03 in   Overcast
8:15 AM 55.4 °F 53.6 °F 94% 29.93 in 10.0 mi North 9.2 mph - 0.09 in   Overcast
8:35 AM 55.4 °F 51.8 °F 88% 29.93 in 10.0 mi North 10.4 mph - 0.15 in   Overcast
8:55 AM 55.4 °F 53.6 °F 94% 29.94 in 10.0 mi NNW 11.5 mph - N/A   Overcast
9:35 AM 55.4 °F 51.8 °F 88% 29.96 in 10.0 mi Calm Calm - 0.07 in   Overcast
9:55 AM 55.4 °F 51.8 °F 88% 29.96 in 7.0 mi Calm Calm - 0.15 in   Overcast
10:15 AM 55.4 °F 51.8 °F 88% 29.96 in 8.0 mi East 3.5 mph - N/A   Overcast
10:35 AM 55.4 °F 51.8 °F 88% 29.95 in 8.0 mi NE 3.5 mph - 0.02 in   Overcast
10:55 AM 55.4 °F 51.8 °F 88% 29.98 in 10.0 mi WNW 5.8 mph - N/A   Overcast
11:15 AM 55.4 °F 51.8 °F 88% 29.97 in 10.0 mi NW 6.9 mph - 0.02 in   Overcast
11:35 AM 55.4 °F 51.8 °F 88% 29.97 in 10.0 mi NW 5.8 mph - 0.04 in   Mostly Cloudy
11:55 AM 55.4 °F 51.8 °F 88% 29.96 in 10.0 mi Calm Calm - 0.05 in   Mostly Cloudy
12:15 PM 57.2 °F 53.6 °F 88% 29.97 in 10.0 mi SW 4.6 mph - N/A   Scattered Clouds
12:35 PM 59.0 °F 53.6 °F 82% 29.96 in 10.0 mi West 6.9 mph - N/A   Mostly Cloudy
12:55 PM 59.0 °F 53.6 °F 82% 29.94 in 10.0 mi WSW 4.6 mph - N/A   Mostly Cloudy
1:15 PM 59.0 °F 53.6 °F 82% 29.96 in 10.0 mi West 5.8 mph - N/A   Mostly Cloudy
1:55 PM 60.8 °F 53.6 °F 77% 29.96 in 10.0 mi West 12.7 mph - N/A   Mostly Cloudy
2:15 PM 62.6 °F 53.6 °F 72% 29.96 in 10.0 mi WNW 16.1 mph - N/A   Mostly Cloudy
2:35 PM 64.4 °F 53.6 °F 68% 29.96 in 10.0 mi WNW 16.1 mph - N/A   Mostly Cloudy
2:55 PM 64.4 °F 53.6 °F 68% 29.96 in 10.0 mi NW 16.1 mph 24.2 mph N/A   Mostly Cloudy
3:15 PM 64.4 °F 53.6 °F 68% 29.96 in 10.0 mi NW 18.4 mph 25.3 mph N/A   Mostly Cloudy
3:35 PM 66.2 °F 53.6 °F 64% 29.96 in 10.0 mi WNW 17.3 mph 23.0 mph N/A   Mostly Cloudy
3:55 PM 62.6 °F 51.8 °F 68% 29.96 in 10.0 mi NW 20.7 mph 28.8 mph N/A   Overcast
4:15 PM 64.4 °F 51.8 °F 64% 29.97 in 10.0 mi NW 19.6 mph 27.6 mph N/A   Mostly Cloudy
4:35 PM 62.6 °F 50.0 °F 63% 29.98 in 10.0 mi WNW 23.0 mph 28.8 mph N/A   Mostly Cloudy
4:55 PM 62.6 °F 50.0 °F 63% 29.97 in 10.0 mi WNW 17.3 mph 25.3 mph N/A   Mostly Cloudy
5:15 PM 62.6 °F 48.2 °F 59% 29.97 in 10.0 mi WNW 18.4 mph 29.9 mph N/A   Mostly Cloudy
5:35 PM 64.4 °F 48.2 °F 56% 29.97 in 10.0 mi WNW 17.3 mph 26.5 mph N/A   Mostly Cloudy
5:55 PM 62.6 °F 48.2 °F 59% 29.97 in 10.0 mi WNW 15.0 mph 26.5 mph N/A   Scattered Clouds
6:15 PM 62.6 °F 46.4 °F 55% 29.97 in 10.0 mi WNW 20.7 mph 29.9 mph N/A   Scattered Clouds
6:35 PM 62.6 °F 44.6 °F 52% 29.96 in 10.0 mi NW 12.7 mph 20.7 mph N/A   Partly Cloudy
6:55 PM 62.6 °F 44.6 °F 52% 29.96 in 10.0 mi WNW 17.3 mph 24.2 mph N/A   Clear
7:15 PM 62.6 °F 44.6 °F 52% 29.96 in 10.0 mi WNW 16.1 mph 24.2 mph N/A   Clear
7:35 PM 60.8 °F 44.6 °F 55% 29.96 in 10.0 mi WNW 13.8 mph 26.5 mph N/A   Clear
7:56 PM 60.8 °F 44.6 °F 55% 29.97 in 10.0 mi WNW 11.5 mph - N/A   Clear
8:15 PM 59.0 °F 44.6 °F 59% 29.98 in 10.0 mi WNW 11.5 mph - N/A   Clear
8:35 PM 57.2 °F 44.6 °F 63% 29.98 in 10.0 mi West 9.2 mph - N/A   Clear
8:55 PM 57.2 °F 46.4 °F 67% 29.98 in 10.0 mi West 8.1 mph - N/A   Scattered Clouds
9:15 PM 57.2 °F 46.4 °F 67% 29.98 in 10.0 mi WSW 9.2 mph - N/A   Mostly Cloudy
9:35 PM 55.4 °F 46.4 °F 72% 29.98 in 10.0 mi WSW 11.5 mph - N/A   Scattered Clouds
9:55 PM 57.2 °F 46.4 °F 67% 29.99 in 10.0 mi WSW 11.5 mph - N/A   Mostly Cloudy
10:15 PM 59.0 °F 44.6 °F 59% 30.00 in 10.0 mi WSW 10.4 mph - N/A   Overcast
10:35 PM 59.0 °F 44.6 °F 59% 29.99 in 10.0 mi WSW 11.5 mph 18.4 mph N/A   Overcast
10:55 PM 59.0 °F 44.6 °F 59% 29.99 in 10.0 mi WSW 12.7 mph - N/A   Overcast
11:15 PM 57.2 °F 44.6 °F 63% 29.98 in 10.0 mi WSW 12.7 mph - N/A   Overcast
11:55 PM 57.2 °F 44.6 °F 63% 29.96 in 10.0 mi West 16.1 mph 23.0 mph N/A   Scattered Clouds